Weather at Portland International Airport

Public forecast

Using degrees Fahrenheit for public forecast. Weather courtesy of forecast.io.

Current aviation weather report (METAR) for Portland International Airport

Retrieved 2021/01/28 06:53 UTC (25 minutes ago):

KPDX 280653Z 11010KT 10SM BKN028 OVC034 06/03 A2962 RMK AO2 RAE0559 SLP031 P0000 T00610028

Aviation forecast (TAF) for Portland International Airport

Retrieved 2021/01/28 06:45 UTC (33 minutes ago):

TAF KPDX 280543Z 2806/2906 12011KT P6SM -RA BKN035 OVC050 FM281100 12006KT P6SM SCT015 BKN022 FM281700 12005KT P6SM SCT025 BKN045 FM282100 VRB03KT P6SM SCT015 BKN120